Time;durP1;ratioP1;P1;durP2;ratioP2;P2;SDS_P1;SDS_P2;PMS_P1;PMS_P2;Temp;Humidity;BMP_temperature;BMP_pressure;BME280_temperature;BME280_humidity;BME280_pressure;Samples;Min_cycle;Max_cycle;Signal;HPM_P1;HPM_P2
2022/03/18 14:28:29;;;;;;;22.23;13.98;;;;;;;16.10;52.72;102528.69;4868412;24;20045;-68
2022/03/18 14:31:14;;;;;;;25.42;16.02;;;;;;;16.08;51.92;102533.31;4859746;29;20097;-68
2022/03/18 14:33:59;;;;;;;22.00;14.38;;;;;;;16.17;52.18;102529.88;4860610;29;20202;-68
2022/03/18 14:36:43;;;;;;;31.88;14.93;;;;;;;16.12;51.34;102524.03;4860394;29;20052;-68
2022/03/18 14:39:27;;;;;;;25.92;18.15;;;;;;;15.88;51.00;102536.75;4881948;23;20142;-70
2022/03/18 14:42:11;;;;;;;22.23;15.77;;;;;;;15.86;51.98;102537.88;4860734;29;20101;-70
2022/03/18 14:44:57;;;;;;;21.70;14.90;;;;;;;15.96;51.54;102538.84;4850138;29;20056;-69
2022/03/18 14:47:42;;;;;;;26.92;16.70;;;;;;;15.94;51.99;102533.59;4863350;29;20555;-69
2022/03/18 14:50:26;;;;;;;29.67;19.63;;;;;;;15.85;52.11;102536.19;4862929;29;20063;-69
2022/03/18 14:53:12;;;;;;;27.10;16.95;;;;;;;15.54;52.04;102536.06;4850120;29;20462;-69
2022/03/18 14:58:59;;;;;;;29.15;16.00;;;;;;;15.52;52.26;102543.38;4863672;29;20052;-69
2022/03/18 15:01:43;;;;;;;68.25;58.13;;;;;;;15.63;51.75;102526.28;4863037;29;20056;-69
2022/03/18 15:04:27;;;;;;;26.90;20.70;;;;;;;15.38;52.30;102528.34;4862782;29;20501;-68
2022/03/18 15:07:11;;;;;;;28.58;19.20;;;;;;;15.46;52.58;102531.28;4849848;29;20052;-69
2022/03/18 15:09:55;;;;;;;30.15;21.75;;;;;;;15.23;52.45;102532.22;4862487;29;20078;-69
2022/03/18 15:12:39;;;;;;;29.00;20.08;;;;;;;15.32;52.74;102533.34;4862781;29;20045;-69
2022/03/18 15:15:23;;;;;;;23.85;17.90;;;;;;;15.35;53.09;102536.66;4862687;29;20054;-69
2022/03/18 15:18:08;;;;;;;32.35;21.50;;;;;;;15.34;53.03;102537.63;4863482;29;20414;-69
2022/03/18 15:20:53;;;;;;;31.30;22.48;;;;;;;15.41;53.31;102529.94;4862416;29;20088;-69
2022/03/18 15:23:37;;;;;;;28.20;19.63;;;;;;;15.43;53.74;102533.34;4863204;29;20105;-69
2022/03/18 15:26:21;;;;;;;28.10;19.00;;;;;;;15.52;53.25;102538.84;4862521;29;20096;-70
2022/03/18 15:29:05;;;;;;;26.00;16.73;;;;;;;15.38;53.29;102538.22;4862350;29;20052;-69
2022/03/18 15:31:50;;;;;;;23.33;17.73;;;;;;;15.53;53.63;102534.34;4862169;29;20052;-69
2022/03/18 15:34:34;;;;;;;28.27;18.13;;;;;;;15.58;53.34;102527.63;4863296;29;20137;-69
2022/03/18 15:37:20;;;;;;;27.10;16.73;;;;;;;15.51;53.54;102542.50;4862536;29;20508;-69
2022/03/18 15:40:05;;;;;;;25.75;18.55;;;;;;;15.65;53.78;102534.22;4862745;29;20056;-69
2022/03/18 15:42:51;;;;;;;34.03;22.88;;;;;;;15.73;53.11;102535.31;4861943;29;20076;-69
2022/03/18 15:45:35;;;;;;;28.33;18.42;;;;;;;15.60;52.25;102532.88;4862938;29;20055;-69
2022/03/18 15:48:19;;;;;;;26.13;18.95;;;;;;;15.62;52.91;102537.13;4862396;29;20161;-69
2022/03/18 15:51:05;;;;;;;29.08;21.58;;;;;;;15.41;53.32;102536.16;4861879;29;20064;-70
2022/03/18 15:53:50;;;;;;;26.05;16.35;;;;;;;15.31;53.35;102534.31;4861671;29;20097;-69
2022/03/18 15:56:38;;;;;;;27.65;20.05;;;;;;;15.06;53.17;102531.78;4849109;29;20152;-69
2022/03/18 15:59:23;;;;;;;31.02;20.17;;;;;;;15.10;54.62;102535.97;4862778;29;20129;-69
2022/03/18 16:02:08;;;;;;;29.80;18.45;;;;;;;14.81;54.47;102535.50;4848750;29;20105;-69
2022/03/18 16:04:53;;;;;;;34.20;22.63;;;;;;;14.80;54.52;102538.31;4861579;29;20098;-69
2022/03/18 16:07:38;;;;;;;29.55;19.30;;;;;;;14.65;55.05;102526.03;4862574;29;20045;-69
2022/03/18 16:10:22;;;;;;;28.15;17.25;;;;;;;14.43;56.89;102534.00;4861572;29;20072;-68
2022/03/18 16:13:06;;;;;;;23.75;16.08;;;;;;;14.28;57.28;102535.16;4862763;29;20060;-69
2022/03/18 16:15:50;;;;;;;29.80;19.58;;;;;;;14.25;56.98;102524.63;4862689;29;20097;-68
2022/03/18 16:18:33;;;;;;;34.92;23.27;;;;;;;14.10;57.95;102544.50;4848434;29;20056;-69
2022/03/18 16:21:17;;;;;;;35.60;26.05;;;;;;;14.08;58.82;102533.88;4861306;29;20114;-69
2022/03/18 16:24:03;;;;;;;29.10;18.98;;;;;;;13.90;59.40;102534.38;4862377;29;20105;-69
2022/03/18 16:26:57;;;;;;;41.75;26.00;;;;;;;13.80;60.12;102534.19;4861240;29;20081;-69
2022/03/18 16:29:41;;;;;;;32.88;20.73;;;;;;;13.78;60.18;102530.75;4861381;29;20569;-69
2022/03/18 16:32:25;;;;;;;36.70;22.83;;;;;;;13.69;61.42;102546.63;4862684;29;20052;-69
2022/03/18 16:35:09;;;;;;;34.78;23.13;;;;;;;13.61;61.68;102543.63;4862168;29;20609;-69
2022/03/18 16:37:53;;;;;;;26.52;17.33;;;;;;;13.47;61.94;102546.44;4861277;29;20410;-69
2022/03/18 16:40:38;;;;;;;24.33;15.13;;;;;;;13.36;62.70;102543.66;4860849;29;20092;-69
2022/03/18 16:43:22;;;;;;;31.13;21.17;;;;;;;13.33;64.01;102559.94;4861987;29;20110;-69
2022/03/18 16:49:24;;;;;;;52.08;36.28;;;;;;;13.08;65.71;102563.47;4861125;29;20072;-69
2022/03/18 16:52:08;;;;;;;31.23;18.10;;;;;;;13.02;66.04;102568.38;4850168;29;20105;-69
2022/03/18 16:54:52;;;;;;;52.90;33.58;;;;;;;12.99;66.83;102571.28;4861726;29;20470;-69
2022/03/18 16:57:36;;;;;;;39.80;22.95;;;;;;;12.97;66.92;102578.56;4861004;29;20060;-69
2022/03/18 17:00:22;;;;;;;34.15;20.60;;;;;;;12.94;68.00;102581.44;4860554;29;20056;-69
2022/03/18 17:03:07;;;;;;;29.10;18.77;;;;;;;12.76;69.28;102585.31;4860760;29;20169;-69
2022/03/18 17:05:51;;;;;;;38.15;23.65;;;;;;;12.81;68.02;102583.19;4860368;29;20080;-69
2022/03/18 17:08:36;;;;;;;41.72;24.38;;;;;;;12.80;67.44;102588.66;4860733;29;20522;-69
2022/03/18 17:11:20;;;;;;;25.65;15.18;;;;;;;12.73;68.13;102606.94;4861714;29;20053;-69
2022/03/18 17:14:04;;;;;;;31.33;17.70;;;;;;;12.68;67.43;102584.97;4847388;29;20055;-69
2022/03/18 17:16:49;;;;;;;31.15;19.92;;;;;;;12.53;68.39;102604.72;4861329;29;20482;-69
2022/03/18 17:19:34;;;;;;;38.72;24.38;;;;;;;12.46;67.65;102614.09;4861561;29;20066;-69
2022/03/18 17:22:18;;;;;;;33.25;20.70;;;;;;;12.35;67.67;102610.41;4861297;29;20052;-69
2022/03/18 17:25:02;;;;;;;28.33;18.65;;;;;;;12.34;68.14;102614.91;4861311;29;20534;-69
2022/03/18 17:27:49;;;;;;;30.63;20.55;;;;;;;12.27;68.09;102624.28;4861496;29;20068;-69
2022/03/18 17:30:34;;;;;;;35.67;23.55;;;;;;;12.22;68.49;102625.53;4861392;29;20055;-69
2022/03/18 17:33:18;;;;;;;32.78;22.25;;;;;;;12.12;69.56;102613.69;4860419;29;20079;-69
2022/03/18 17:36:03;;;;;;;32.60;21.83;;;;;;;12.02;70.63;102615.25;4847329;29;20059;-69
2022/03/18 17:38:48;;;;;;;31.98;18.88;;;;;;;12.00;71.89;102634.03;4860344;29;20060;-70
2022/03/18 17:41:32;;;;;;;31.17;18.85;;;;;;;11.94;72.49;102630.91;4860122;29;20100;-69
2022/03/18 17:44:16;;;;;;;29.52;18.73;;;;;;;11.89;73.03;102641.88;4861008;29;20113;-69
2022/03/18 17:47:08;;;;;;;32.05;19.48;;;;;;;11.83;74.05;102634.25;4861030;29;20565;-69
2022/03/18 17:49:52;;;;;;;30.25;18.63;;;;;;;11.81;74.80;102646.88;4860115;29;20072;-69
2022/03/18 17:52:36;;;;;;;34.00;19.73;;;;;;;11.73;75.57;102649.13;4861240;29;20063;-69
2022/03/18 17:55:21;;;;;;;29.52;19.67;;;;;;;11.67;76.77;102652.19;4859971;29;20072;-70
2022/03/18 17:58:05;;;;;;;32.38;19.35;;;;;;;11.62;77.84;102659.63;4860024;29;20444;-70
2022/03/18 18:00:48;;;;;;;73.60;55.25;;;;;;;11.57;78.62;102661.72;4859890;29;20085;-69
2022/03/18 18:03:34;;;;;;;42.10;28.13;;;;;;;11.54;78.37;102659.19;4859869;29;20136;-69
2022/03/18 18:06:18;;;;;;;66.15;45.35;;;;;;;11.51;79.94;102669.19;4860069;29;20524;-69
2022/03/18 18:09:09;;;;;;;44.42;27.27;;;;;;;11.46;79.96;102669.47;4859764;29;20052;-69
2022/03/18 18:11:54;;;;;;;33.78;22.40;;;;;;;11.36;81.31;102667.47;4860097;29;20056;-69
2022/03/18 18:14:38;;;;;;;35.75;23.33;;;;;;;11.29;82.26;102663.44;4861028;29;20081;-69
2022/03/18 18:17:22;;;;;;;41.28;27.27;;;;;;;11.27;81.83;102678.69;4860076;29;20053;-69
2022/03/18 18:23:10;;;;;;;37.40;24.90;;;;;;;11.20;81.94;102670.19;4863763;29;20106;-69
2022/03/18 18:25:54;;;;;;;41.70;25.52;;;;;;;11.20;81.77;102680.00;4864381;29;20057;-69
2022/03/18 18:28:38;;;;;;;40.40;25.63;;;;;;;11.15;81.16;102682.09;4863520;29;20088;-69
2022/03/18 18:31:21;;;;;;;42.92;26.55;;;;;;;11.17;81.54;102686.38;4863531;29;20109;-69
2022/03/18 18:34:05;;;;;;;43.00;23.95;;;;;;;11.08;81.33;102694.91;4864711;29;20067;-70
2022/03/18 18:36:51;;;;;;;60.70;41.08;;;;;;;11.09;82.30;102693.13;4850395;29;20081;-69
2022/03/18 18:39:36;;;;;;;68.97;46.00;;;;;;;11.08;82.02;102691.41;4850313;29;20486;-69
2022/03/18 18:42:20;;;;;;;50.08;29.45;;;;;;;10.97;84.25;102694.66;4864251;29;20565;-71
2022/03/18 18:45:05;;;;;;;59.05;34.58;;;;;;;10.93;82.61;102690.47;4864534;29;20517;-71
2022/03/18 18:47:49;;;;;;;49.13;29.70;;;;;;;10.93;83.11;102698.47;4863266;29;20618;-69
2022/03/18 18:50:33;;;;;;;94.05;60.75;;;;;;;10.90;83.31;102703.13;4862921;29;20159;-71
2022/03/18 18:53:16;;;;;;;83.30;51.45;;;;;;;10.88;83.56;102703.22;4863162;29;20117;-71
2022/03/18 18:56:00;;;;;;;61.00;36.10;;;;;;;10.81;83.67;102701.84;4863837;29;20052;-71
2022/03/18 18:58:44;;;;;;;49.72;29.42;;;;;;;10.71;85.72;102703.31;4863032;29;20087;-71
2022/03/18 19:01:29;;;;;;;68.05;39.50;;;;;;;10.66;85.10;102699.19;4862726;29;20117;-69
2022/03/18 19:04:12;;;;;;;53.65;30.52;;;;;;;10.62;86.22;102706.50;4849952;29;20187;-69
2022/03/18 19:06:57;;;;;;;68.43;39.33;;;;;;;10.63;86.00;102700.22;4864188;29;20633;-71
2022/03/18 19:09:41;;;;;;;84.85;48.05;;;;;;;10.66;86.28;102702.72;4862568;29;20512;-69
2022/03/18 19:12:26;;;;;;;92.35;53.97;;;;;;;10.69;86.10;102707.00;4863955;29;20469;-69
2022/03/18 19:15:10;;;;;;;53.58;33.00;;;;;;;10.51;87.33;102711.56;4862827;29;20117;-71
2022/03/18 19:17:55;;;;;;;42.45;24.80;;;;;;;10.46;89.00;102718.97;4863005;29;20092;-69
2022/03/18 19:20:39;;;;;;;54.97;31.10;;;;;;;10.37;90.22;102708.81;4862854;29;20055;-69
2022/03/18 19:23:23;;;;;;;64.88;37.88;;;;;;;10.35;91.28;102713.34;4862775;29;20463;-69
2022/03/18 19:26:07;;;;;;;70.38;45.42;;;;;;;10.34;91.54;102722.31;4863006;29;20052;-69
2022/03/18 19:28:51;;;;;;;69.18;38.20;;;;;;;10.29;92.68;102711.03;4862069;29;20524;-69
2022/03/18 19:34:37;;;;;;;49.58;26.65;;;;;;;10.20;94.17;102723.16;4863401;29;20079;-69
2022/03/18 19:37:21;;;;;;;47.38;26.92;;;;;;;10.25;94.04;102711.28;4863382;29;20055;-71
2022/03/18 19:40:08;;;;;;;182.32;118.90;;;;;;;10.23;94.44;102722.03;4862177;29;20055;-71
2022/03/18 19:42:52;;;;;;;44.95;27.65;;;;;;;10.21;94.95;102723.03;4862200;29;20092;-71
2022/03/18 19:45:36;;;;;;;54.47;33.70;;;;;;;10.19;95.32;102729.44;4862279;29;20060;-71
2022/03/18 19:48:20;;;;;;;53.40;35.22;;;;;;;10.13;95.72;102730.63;4849322;29;20060;-71
2022/03/18 19:51:03;;;;;;;58.30;35.60;;;;;;;10.07;96.18;102727.41;4863129;29;20060;-71
2022/03/18 19:53:47;;;;;;;51.13;29.55;;;;;;;9.90;98.11;102727.41;4849356;29;20609;-71
2022/03/18 20:02:57;;;;;;;49.03;29.52;;;;;;;9.95;99.36;102744.00;4860868;29;20568;-71
2022/03/18 20:05:41;;;;;;;54.70;30.15;;;;;;;9.88;99.62;102750.63;4860934;29;20083;-71
2022/03/18 20:08:26;;;;;;;52.00;29.02;;;;;;;9.88;99.97;102750.63;4845738;29;20051;-71
2022/03/18 20:11:10;;;;;;;56.22;32.63;;;;;;;9.80;100.00;102747.50;4861606;29;20525;-71
2022/03/18 20:13:54;;;;;;;48.90;27.33;;;;;;;9.83;100.00;102752.66;4861747;29;20442;-71
2022/03/18 20:16:38;;;;;;;57.72;29.88;;;;;;;9.74;100.00;102748.66;4861707;29;20056;-70
2022/03/18 20:19:22;;;;;;;69.10;37.78;;;;;;;9.74;100.00;102747.78;4862536;29;20091;-71
2022/03/18 20:22:06;;;;;;;173.90;94.85;;;;;;;9.63;100.00;102744.81;4861641;29;20532;-71
2022/03/18 20:24:50;;;;;;;159.43;87.13;;;;;;;9.55;100.00;102747.88;4862207;29;20056;-71
2022/03/18 20:27:34;;;;;;;129.35;65.10;;;;;;;9.52;100.00;102747.19;4861230;29;20048;-71
2022/03/18 20:30:18;;;;;;;51.08;28.58;;;;;;;9.49;100.00;102750.00;4861136;29;20055;-70
2022/03/18 20:33:03;;;;;;;65.10;34.38;;;;;;;9.51;100.00;102750.78;4861412;29;20132;-71
2022/03/18 20:35:47;;;;;;;122.47;57.38;;;;;;;9.37;100.00;102748.81;4861424;29;20546;-71
2022/03/18 20:38:31;;;;;;;81.78;40.22;;;;;;;9.40;100.00;102755.78;4862140;29;20055;-71
2022/03/18 20:41:15;;;;;;;69.25;38.25;;;;;;;9.40;100.00;102753.13;4848962;29;20406;-71
2022/03/18 20:43:59;;;;;;;90.25;52.05;;;;;;;9.22;100.00;102762.91;4848178;29;20109;-71
2022/03/18 20:46:46;;;;;;;85.03;49.40;;;;;;;9.25;100.00;102765.41;4861477;29;20528;-71
2022/03/18 20:49:30;;;;;;;96.20;59.10;;;;;;;9.26;100.00;102763.63;4860801;29;20080;-71
2022/03/18 20:52:14;;;;;;;75.72;49.28;;;;;;;9.14;100.00;102766.84;4860836;29;20105;-71
2022/03/18 20:55:02;;;;;;;63.17;42.05;;;;;;;9.18;100.00;102769.28;4848017;29;20105;-71
2022/03/18 20:57:47;;;;;;;59.17;35.35;;;;;;;9.19;100.00;102778.16;4861940;29;20059;-71
2022/03/18 21:00:31;;;;;;;68.20;42.70;;;;;;;9.20;100.00;102783.41;4860683;29;20113;-71
2022/03/18 21:03:16;;;;;;;59.40;35.47;;;;;;;9.22;100.00;102780.66;4861022;29;20082;-71
2022/03/18 21:05:59;;;;;;;51.58;29.75;;;;;;;9.16;100.00;102778.31;4860597;29;20132;-71
2022/03/18 21:08:44;;;;;;;68.47;39.15;;;;;;;9.15;100.00;102774.78;4861510;29;20124;-71
2022/03/18 21:11:28;;;;;;;53.95;32.03;;;;;;;9.09;100.00;102776.88;4860792;29;20458;-71
2022/03/18 21:14:14;;;;;;;66.60;41.17;;;;;;;9.07;100.00;102776.09;4847697;29;20048;-71
2022/03/18 21:20:04;;;;;;;54.33;33.88;;;;;;;9.02;100.00;102765.66;4861560;29;20129;-71
2022/03/18 21:22:48;;;;;;;51.83;29.33;;;;;;;8.95;100.00;102774.03;4860302;29;20581;-71
2022/03/18 21:31:38;;;;;;;54.50;30.58;;;;;;;8.78;100.00;102773.97;4860600;29;20582;-70
2022/03/18 21:34:22;;;;;;;63.55;39.08;;;;;;;8.85;100.00;102767.44;4861229;29;20418;-71
2022/03/18 21:37:06;;;;;;;59.22;33.17;;;;;;;8.84;100.00;102768.34;4860178;29;20517;-71
2022/03/18 21:39:50;;;;;;;64.90;40.05;;;;;;;8.81;100.00;102766.69;4860931;29;20569;-71
2022/03/18 21:42:36;;;;;;;98.95;62.85;;;;;;;8.69;100.00;102775.28;4860259;29;20422;-70
2022/03/18 21:45:20;;;;;;;51.97;30.38;;;;;;;8.67;100.00;102776.25;4860062;29;20064;-71
2022/03/18 21:48:04;;;;;;;62.45;35.50;;;;;;;8.61;100.00;102776.53;4860325;29;20108;-71
2022/03/18 21:50:48;;;;;;;63.33;36.58;;;;;;;8.59;100.00;102775.75;4847092;29;20060;-71
2022/03/18 21:53:32;;;;;;;80.50;45.05;;;;;;;8.51;100.00;102776.13;4860443;29;20124;-71
2022/03/18 21:56:16;;;;;;;58.13;34.75;;;;;;;8.46;100.00;102788.75;4847265;29;20478;-71
2022/03/18 21:59:01;;;;;;;55.28;31.10;;;;;;;8.45;100.00;102781.69;4860057;29;20545;-71
2022/03/18 22:01:45;;;;;;;55.67;31.15;;;;;;;8.45;100.00;102772.88;4859918;29;20078;-71
2022/03/18 22:04:29;;;;;;;62.33;33.38;;;;;;;8.45;100.00;102764.91;4860132;29;20049;-70
2022/03/18 22:07:13;;;;;;;59.65;32.92;;;;;;;8.48;100.00;102772.72;4861133;29;20082;-71
2022/03/18 22:09:58;;;;;;;66.32;35.30;;;;;;;8.48;100.00;102775.38;4847100;29;20136;-71
2022/03/18 22:12:43;;;;;;;59.85;34.05;;;;;;;8.40;100.00;102777.53;4860109;29;20057;-71
2022/03/18 22:15:27;;;;;;;65.78;37.97;;;;;;;8.37;100.00;102773.22;4860030;29;20089;-70
2022/03/18 22:18:12;;;;;;;55.97;32.45;;;;;;;8.36;100.00;102778.63;4859758;29;20416;-71
2022/03/18 22:20:55;;;;;;;55.72;31.88;;;;;;;8.28;100.00;102770.13;4860014;29;20099;-71
2022/03/18 22:23:40;;;;;;;65.53;37.22;;;;;;;8.38;100.00;102764.34;4859919;29;20056;-71
2022/03/18 22:26:24;;;;;;;62.10;33.83;;;;;;;8.37;100.00;102769.72;4860908;29;20133;-71
2022/03/18 22:29:08;;;;;;;65.40;36.78;;;;;;;8.36;100.00;102758.19;4859643;29;20056;-71
2022/03/18 22:31:52;;;;;;;59.13;32.75;;;;;;;8.41;100.00;102765.97;4859930;29;20105;-71
2022/03/18 22:34:36;;;;;;;58.45;32.55;;;;;;;8.31;100.00;102768.19;4846614;29;20084;-71
2022/03/18 22:37:20;;;;;;;60.85;33.92;;;;;;;8.30;100.00;102765.59;4860875;29;20466;-70
2022/03/18 22:40:10;;;;;;;78.15;45.83;;;;;;;8.31;100.00;102773.50;4846528;29;20056;-71
2022/03/18 22:42:54;;;;;;;74.20;39.70;;;;;;;8.29;100.00;102763.88;4859694;29;20414;-71
2022/03/18 22:45:38;;;;;;;64.93;35.17;;;;;;;8.24;100.00;102772.06;4861018;29;20056;-71
2022/03/18 22:48:23;;;;;;;59.35;33.78;;;;;;;8.26;100.00;102764.88;4859886;29;20053;-71
2022/03/18 22:51:07;;;;;;;56.40;31.02;;;;;;;8.31;100.00;102773.50;4846930;29;20520;-71
2022/03/18 22:53:53;;;;;;;64.93;33.30;;;;;;;8.30;100.00;102760.28;4860613;29;20078;-71
2022/03/18 22:56:37;;;;;;;56.78;31.77;;;;;;;8.18;100.00;102776.75;4860046;29;20144;-71
2022/03/18 22:59:21;;;;;;;71.65;34.38;;;;;;;8.18;100.00;102776.75;4859597;29;20114;-71
2022/03/18 23:02:08;;;;;;;64.00;32.65;;;;;;;8.17;100.00;102770.56;4859840;29;20405;-71
2022/03/18 23:04:51;;;;;;;57.58;33.45;;;;;;;8.07;100.00;102768.41;4862130;29;20056;-71
2022/03/18 23:07:36;;;;;;;64.90;34.10;;;;;;;8.13;100.00;102768.97;4864287;29;20413;-71
2022/03/18 23:13:22;;;;;;;63.60;32.92;;;;;;;8.05;100.00;102763.13;4863016;29;20101;-71
2022/03/18 23:16:07;;;;;;;61.50;34.60;;;;;;;8.00;100.00;102766.94;4862803;29;20169;-71
2022/03/18 23:18:51;;;;;;;60.85;31.80;;;;;;;7.99;100.00;102767.88;4863408;29;20056;-71
2022/03/18 23:21:35;;;;;;;61.03;33.10;;;;;;;7.93;100.00;102770.81;4862935;29;20101;-70
2022/03/18 23:24:19;;;;;;;58.47;32.15;;;;;;;7.89;100.00;102766.53;4862564;29;20056;-71
2022/03/18 23:27:04;;;;;;;62.92;31.60;;;;;;;7.88;100.00;102767.47;4862327;29;20132;-71
2022/03/18 23:29:48;;;;;;;57.75;31.75;;;;;;;7.81;100.00;102768.66;4862190;29;20585;-71
2022/03/18 23:32:31;;;;;;;66.85;32.80;;;;;;;7.79;100.00;102767.88;4862513;29;20056;-71
2022/03/18 23:35:15;;;;;;;67.82;33.10;;;;;;;7.79;100.00;102765.22;4863180;29;20505;-70
2022/03/18 23:37:59;;;;;;;62.50;32.05;;;;;;;7.76;100.00;102754.75;4863340;29;20089;-71
2022/03/18 23:40:43;;;;;;;57.95;31.95;;;;;;;7.78;100.00;102755.53;4862938;29;20089;-71
2022/03/18 23:43:27;;;;;;;57.40;32.15;;;;;;;7.77;100.00;102756.47;4863430;29;20064;-71
2022/03/18 23:46:11;;;;;;;56.72;32.40;;;;;;;7.74;100.00;102751.28;4863418;29;20056;-71
2022/03/18 23:48:55;;;;;;;61.92;31.75;;;;;;;7.71;100.00;102754.94;4862118;29;20105;-71
2022/03/18 23:51:39;;;;;;;57.65;32.08;;;;;;;7.68;100.00;102748.88;4849174;29;20066;-71
2022/03/18 23:54:24;;;;;;;54.15;29.30;;;;;;;7.59;100.00;102749.28;4849357;29;20056;-71
2022/03/18 23:57:08;;;;;;;58.80;31.17;;;;;;;7.61;100.00;102747.41;4862808;29;20056;-71
2022/03/18 23:59:53;;;;;;;56.30;31.13;;;;;;;7.53;100.00;102749.56;4861820;29;20133;-71
